Time;durP1;ratioP1;P1;durP2;ratioP2;P2;SDS_P1;SDS_P2;PMS_P1;PMS_P2;Temp;Humidity;BMP_temperature;BMP_pressure;BME280_temperature;BME280_humidity;BME280_pressure;Samples;Min_cycle;Max_cycle;Signal;HPM_P1;HPM_P2
2021/01/23 00:00:53;;;;;;;1.67;0.90;;;5.50;99.90;;;;;;5011583;28;20204;-82
2021/01/23 00:03:20;;;;;;;1.97;0.70;;;5.60;99.90;;;;;;5011170;28;20204;-83
2021/01/23 00:05:47;;;;;;;1.17;0.67;;;5.70;99.90;;;;;;5011059;28;20216;-79
2021/01/23 00:08:13;;;;;;;1.23;1.13;;;5.80;99.90;;;;;;5010585;28;20223;-81
2021/01/23 00:10:40;;;;;;;2.40;1.00;;;5.80;99.90;;;;;;5010362;28;20266;-78
2021/01/23 00:13:06;;;;;;;1.43;0.80;;;5.90;99.90;;;;;;5010588;28;20625;-74
2021/01/23 00:15:33;;;;;;;1.23;0.60;;;6.00;99.90;;;;;;5010941;28;20672;-81
2021/01/23 00:18:00;;;;;;;1.47;1.07;;;6.00;99.90;;;;;;5010657;28;20227;-78
2021/01/23 00:20:26;;;;;;;0.90;0.60;;;6.00;99.90;;;;;;5011635;28;20212;-76
2021/01/23 00:22:53;;;;;;;1.77;0.87;;;6.00;99.90;;;;;;5011157;28;20211;-84
2021/01/23 00:25:19;;;;;;;1.97;1.10;;;6.10;99.90;;;;;;5011536;28;20208;-84
2021/01/23 00:27:46;;;;;;;3.00;1.13;;;6.20;99.90;;;;;;5010799;28;20204;-83
2021/01/23 00:30:13;;;;;;;4.20;1.00;;;6.20;99.90;;;;;;5012816;28;20203;-82
2021/01/23 00:32:40;;;;;;;3.43;0.83;;;6.20;99.90;;;;;;5014170;28;20246;-80
2021/01/23 00:35:09;;;;;;;1.10;0.80;;;6.30;99.90;;;;;;5014958;28;20204;-82
2021/01/23 00:37:35;;;;;;;3.53;1.23;;;6.20;99.90;;;;;;5027146;28;20207;-81
2021/01/23 00:40:02;;;;;;;1.40;0.93;;;6.20;99.90;;;;;;5015661;28;20581;-83
2021/01/23 00:42:28;;;;;;;1.30;0.53;;;6.10;99.90;;;;;;5014750;28;20212;-78
2021/01/23 00:44:55;;;;;;;4.23;0.60;;;6.10;99.90;;;;;;5017574;28;20203;-82
2021/01/23 00:47:21;;;;;;;2.87;0.60;;;5.90;99.90;;;;;;5025588;28;20582;-83
2021/01/23 00:49:48;;;;;;;1.40;0.70;;;5.70;99.90;;;;;;5013568;28;20632;-81
2021/01/23 00:52:15;;;;;;;1.57;1.00;;;5.70;99.90;;;;;;5014621;28;20571;-81
2021/01/23 00:54:41;;;;;;;2.33;0.70;;;5.60;99.90;;;;;;5014251;28;20204;-81
2021/01/23 00:57:08;;;;;;;1.27;0.73;;;5.50;99.90;;;;;;5014091;28;20266;-83
2021/01/23 00:59:34;;;;;;;0.67;0.60;;;5.40;99.90;;;;;;5013469;28;20678;-81
2021/01/23 01:02:01;;;;;;;0.70;0.33;;;5.50;99.90;;;;;;5014239;28;20204;-82
2021/01/23 01:04:27;;;;;;;2.67;0.83;;;5.60;99.90;;;;;;5014120;28;20263;-80
2021/01/23 01:06:54;;;;;;;2.00;1.47;;;5.60;99.90;;;;;;5014100;28;20216;-82
2021/01/23 01:09:21;;;;;;;3.73;0.60;;;5.50;99.90;;;;;;5014022;28;20208;-80
2021/01/23 01:11:48;;;;;;;1.13;0.67;;;5.40;99.90;;;;;;5013763;28;20208;-80
2021/01/23 01:14:14;;;;;;;1.13;0.40;;;5.40;99.90;;;;;;5013491;28;20212;-81
2021/01/23 01:16:40;;;;;;;2.70;0.47;;;5.30;99.90;;;;;;5013709;28;20212;-84
2021/01/23 01:19:07;;;;;;;1.37;0.97;;;5.30;99.90;;;;;;5013392;28;20240;-82
2021/01/23 01:21:34;;;;;;;0.90;0.50;;;5.30;99.90;;;;;;5013705;28;20200;-82
2021/01/23 01:24:00;;;;;;;1.23;0.60;;;5.30;99.90;;;;;;5014065;28;20204;-79
2021/01/23 01:26:28;;;;;;;4.83;1.00;;;5.40;99.90;;;;;;5012052;28;20208;-83
2021/01/23 01:28:55;;;;;;;1.10;0.70;;;5.30;99.90;;;;;;5013852;28;20211;-80
2021/01/23 01:31:22;;;;;;;0.57;0.50;;;5.30;99.90;;;;;;5013512;28;20208;-82
2021/01/23 01:33:48;;;;;;;0.67;0.40;;;5.30;99.90;;;;;;5013461;28;20222;-83
2021/01/23 01:36:15;;;;;;;0.90;0.73;;;5.40;99.90;;;;;;5013728;28;20220;-80
2021/01/23 01:38:42;;;;;;;0.60;0.40;;;5.40;99.90;;;;;;5013104;28;20282;-79
2021/01/23 01:41:08;;;;;;;0.87;0.60;;;5.50;99.90;;;;;;5012583;28;20250;-80
2021/01/23 01:43:36;;;;;;;0.97;0.37;;;5.70;99.90;;;;;;5012516;28;20226;-80
2021/01/23 01:46:04;;;;;;;1.77;0.77;;;5.70;99.90;;;;;;5013404;28;20200;-80
2021/01/23 01:48:30;;;;;;;1.43;0.40;;;5.70;99.90;;;;;;5012795;28;20216;-81
2021/01/23 01:50:57;;;;;;;1.47;0.70;;;5.60;99.90;;;;;;5013119;28;20204;-73
2021/01/23 01:53:23;;;;;;;1.00;0.77;;;5.50;99.90;;;;;;5013521;28;20211;-77
2021/01/23 01:55:50;;;;;;;5.43;0.60;;;5.50;99.90;;;;;;5012557;28;20220;-81
2021/01/23 01:58:17;;;;;;;1.53;0.60;;;5.50;99.90;;;;;;5012535;28;20238;-76
2021/01/23 02:00:44;;;;;;;1.73;0.80;;;5.50;99.90;;;;;;5012099;28;20639;-78
2021/01/23 02:03:39;;;;;;;2.33;0.70;;;5.50;99.90;;;;;;5012396;28;20695;-77
2021/01/23 02:06:19;;;;;;;2.40;0.80;;;5.60;99.90;;;;;;5012618;28;20335;-74
2021/01/23 02:08:53;;;;;;;3.53;0.90;;;5.60;99.90;;;;;;5012265;28;20208;-77
2021/01/23 02:11:29;;;;;;;1.17;0.30;;;5.60;99.90;;;;;;5012506;28;20231;-78
2021/01/23 02:14:05;;;;;;;1.07;0.60;;;5.60;99.90;;;;;;5012838;28;20671;-77
2021/01/23 02:16:35;;;;;;;3.27;0.97;;;5.50;99.90;;;;;;5011933;28;20242;-76
2021/01/23 02:19:09;;;;;;;2.33;0.80;;;5.40;99.90;;;;;;5012214;28;20754;-75
2021/01/23 02:22:11;;;;;;;0.63;0.40;;;5.50;99.90;;;;;;5011947;28;20598;-79
2021/01/23 02:24:37;;;;;;;5.07;0.60;;;5.50;99.90;;;;;;5011340;28;20290;-77
2021/01/23 02:27:18;;;;;;;0.70;0.47;;;5.70;99.90;;;;;;5012062;28;20588;-82
2021/01/23 02:30:11;;;;;;;2.40;0.50;;;5.80;99.90;;;;;;5012105;28;20212;-81
2021/01/23 02:32:40;;;;;;;0.50;0.40;;;5.80;99.90;;;;;;5002059;28;20582;-82
2021/01/23 02:35:10;;;;;;;2.93;1.07;;;5.90;99.90;;;;;;5011869;28;20208;-80
2021/01/23 02:37:38;;;;;;;0.83;0.43;;;6.00;99.90;;;;;;5011763;28;20629;-80
2021/01/23 02:40:07;;;;;;;1.07;0.30;;;6.00;99.90;;;;;;5012454;28;20213;-78
2021/01/23 02:42:33;;;;;;;1.80;0.30;;;6.10;99.90;;;;;;4997305;28;20231;-80
2021/01/23 02:45:00;;;;;;;2.40;0.60;;;6.10;99.90;;;;;;5012044;28;20212;-79
2021/01/23 02:47:26;;;;;;;1.63;0.73;;;6.20;99.90;;;;;;5012116;28;20230;-79
2021/01/23 02:49:54;;;;;;;1.70;0.43;;;6.00;99.90;;;;;;5012633;28;20267;-83
2021/01/23 02:52:35;;;;;;;0.87;0.50;;;6.00;99.90;;;;;;5011860;28;20330;-82
2021/01/23 02:55:06;;;;;;;0.97;0.40;;;6.00;99.90;;;;;;5012555;28;20209;-86
2021/01/23 02:57:34;;;;;;;0.73;0.40;;;6.00;99.90;;;;;;5011778;28;20210;-83
2021/01/23 03:00:06;;;;;;;2.73;0.53;;;6.00;99.90;;;;;;5012675;28;20208;-83
2021/01/23 03:02:35;;;;;;;0.97;0.50;;;5.90;99.90;;;;;;5011921;28;20606;-83
2021/01/23 03:05:03;;;;;;;1.87;0.73;;;6.00;99.90;;;;;;5012066;28;20266;-82
2021/01/23 03:07:30;;;;;;;2.47;0.60;;;6.00;99.90;;;;;;5011520;28;20267;-80
2021/01/23 03:09:56;;;;;;;3.63;1.03;;;6.00;99.90;;;;;;5012056;28;20212;-74
2021/01/23 03:12:23;;;;;;;3.47;1.10;;;5.90;99.90;;;;;;5012379;28;20216;-83
2021/01/23 03:14:49;;;;;;;1.77;0.90;;;5.80;99.90;;;;;;4997944;28;20684;-83
2021/01/23 03:17:16;;;;;;;4.33;1.20;;;5.60;99.90;;;;;;5011746;28;20212;-81
2021/01/23 03:19:42;;;;;;;7.23;3.27;;;5.60;99.90;;;;;;5010997;28;20227;-82
2021/01/23 03:22:10;;;;;;;4.60;2.00;;;5.60;99.90;;;;;;5011937;28;20212;-80
2021/01/23 03:24:36;;;;;;;5.60;1.73;;;5.60;99.90;;;;;;5011263;28;20204;-82
2021/01/23 03:27:03;;;;;;;4.37;1.30;;;5.70;99.90;;;;;;5012100;28;20204;-81
2021/01/23 03:29:30;;;;;;;4.43;1.33;;;5.80;99.90;;;;;;5011861;28;20212;-84
2021/01/23 03:31:56;;;;;;;2.97;1.87;;;5.80;99.90;;;;;;5011919;28;20634;-80
2021/01/23 03:34:23;;;;;;;2.67;0.90;;;5.80;99.90;;;;;;5011252;28;20212;-81
2021/01/23 03:36:49;;;;;;;4.67;1.20;;;5.90;99.90;;;;;;5012302;28;20248;-84
2021/01/23 03:39:16;;;;;;;4.63;0.97;;;5.90;99.90;;;;;;5024438;28;20231;-82
2021/01/23 03:41:43;;;;;;;1.97;0.80;;;6.00;99.90;;;;;;5011081;28;20695;-78
2021/01/23 03:44:09;;;;;;;1.33;0.60;;;6.10;99.90;;;;;;5010820;28;20685;-78
2021/01/23 03:46:36;;;;;;;1.43;0.60;;;6.10;99.90;;;;;;5010704;28;20274;-79
2021/01/23 03:49:02;;;;;;;1.80;0.77;;;6.20;99.90;;;;;;5011210;28;20204;-82
2021/01/23 03:51:29;;;;;;;0.57;0.30;;;6.30;99.90;;;;;;5011318;28;20236;-75
2021/01/23 03:53:55;;;;;;;0.80;0.30;;;6.30;99.90;;;;;;5011607;28;20216;-79
2021/01/23 03:56:23;;;;;;;1.00;0.30;;;6.30;99.90;;;;;;5012039;28;20216;-83
2021/01/23 03:58:49;;;;;;;0.63;0.50;;;6.30;99.90;;;;;;5010470;28;20719;-79
2021/01/23 04:01:16;;;;;;;1.53;0.47;;;6.30;99.90;;;;;;5011241;28;20559;-80
2021/01/23 04:03:42;;;;;;;0.97;0.43;;;6.20;99.90;;;;;;5010912;28;20215;-81
2021/01/23 04:06:09;;;;;;;2.63;0.70;;;6.10;99.90;;;;;;5014331;28;20212;-81
2021/01/23 04:08:36;;;;;;;2.47;0.53;;;6.10;99.90;;;;;;5014866;28;20214;-80
2021/01/23 04:11:02;;;;;;;1.70;0.67;;;6.10;99.90;;;;;;5014991;28;20258;-82
2021/01/23 04:13:29;;;;;;;1.53;0.63;;;6.10;99.90;;;;;;5014959;28;20204;-74
2021/01/23 04:15:56;;;;;;;2.63;0.60;;;6.00;99.90;;;;;;5015267;28;20572;-80
2021/01/23 04:18:23;;;;;;;0.90;0.57;;;5.90;99.90;;;;;;5015441;28;20325;-81
2021/01/23 04:20:50;;;;;;;0.90;0.50;;;5.80;99.90;;;;;;5014770;28;20219;-79
2021/01/23 04:23:16;;;;;;;0.60;0.40;;;5.70;99.90;;;;;;5014539;28;20214;-81
2021/01/23 04:25:42;;;;;;;2.50;0.77;;;5.60;99.90;;;;;;5014530;28;20671;-81
2021/01/23 04:28:09;;;;;;;2.60;0.67;;;5.50;99.90;;;;;;5014766;28;20733;-81
2021/01/23 04:30:36;;;;;;;2.53;0.50;;;5.40;99.90;;;;;;5014255;28;20596;-81
2021/01/23 04:33:03;;;;;;;6.60;0.63;;;5.30;99.90;;;;;;5014577;28;20208;-78
2021/01/23 04:35:29;;;;;;;0.63;0.40;;;5.20;99.90;;;;;;5014142;28;20204;-81
2021/01/23 04:37:56;;;;;;;1.17;0.47;;;5.20;99.90;;;;;;5014881;28;20679;-81
2021/01/23 04:40:22;;;;;;;4.07;0.87;;;5.20;99.90;;;;;;5015091;28;20259;-81
2021/01/23 04:42:49;;;;;;;1.87;1.10;;;5.20;99.90;;;;;;5022804;28;20211;-81
2021/01/23 04:45:16;;;;;;;2.13;0.93;;;5.20;99.90;;;;;;5019535;28;20224;-83
2021/01/23 04:47:43;;;;;;;1.07;0.67;;;5.40;99.90;;;;;;5014206;28;20205;-82
2021/01/23 04:50:11;;;;;;;0.60;0.33;;;5.50;99.90;;;;;;5027947;28;20203;-82
2021/01/23 04:52:39;;;;;;;0.30;0.20;;;5.60;99.90;;;;;;5014354;28;20228;-81
2021/01/23 04:55:08;;;;;;;1.17;0.50;;;5.70;99.90;;;;;;5014210;28;20212;-82
2021/01/23 04:57:34;;;;;;;0.50;0.30;;;5.60;99.90;;;;;;5013623;28;20204;-80
2021/01/23 05:00:00;;;;;;;0.40;0.20;;;5.50;99.90;;;;;;5014457;28;20236;-82
2021/01/23 05:02:27;;;;;;;2.10;0.30;;;5.50;99.90;;;;;;5014356;28;20208;-77
2021/01/23 05:04:57;;;;;;;0.40;0.30;;;5.40;99.90;;;;;;5014453;28;20262;-82
2021/01/23 05:07:31;;;;;;;6.23;0.77;;;5.30;99.90;;;;;;5028176;28;20203;-82
2021/01/23 05:10:11;;;;;;;3.30;0.43;;;5.30;99.90;;;;;;5014101;28;20216;-74
2021/01/23 05:12:40;;;;;;;0.70;0.40;;;5.50;99.90;;;;;;5013726;28;20215;-80
2021/01/23 05:15:09;;;;;;;2.20;0.37;;;5.60;99.90;;;;;;5014209;28;20208;-78
2021/01/23 05:17:55;;;;;;;1.90;0.40;;;5.60;99.90;;;;;;5012744;28;20601;-79
2021/01/23 05:20:38;;;;;;;1.80;0.37;;;5.60;99.90;;;;;;5013614;28;20667;-79
2021/01/23 05:23:06;;;;;;;1.23;0.73;;;5.60;99.90;;;;;;5013723;28;20581;-80
2021/01/23 05:25:34;;;;;;;1.37;0.70;;;5.60;99.90;;;;;;5013441;28;20205;-79
2021/01/23 05:28:02;;;;;;;0.60;0.37;;;5.70;99.90;;;;;;5013520;28;20244;-80
2021/01/23 05:30:44;;;;;;;0.70;0.70;;;5.80;99.90;;;;;;5013876;28;20258;-77
2021/01/23 05:33:12;;;;;;;2.73;2.53;;;5.80;99.90;;;;;;5012718;28;20208;-84
2021/01/23 05:35:40;;;;;;;5.97;5.53;;;5.70;99.90;;;;;;5013613;28;20207;-83
2021/01/23 05:38:20;;;;;;;4.63;4.33;;;5.60;99.90;;;;;;5014358;28;20238;-83
2021/01/23 05:40:47;;;;;;;11.73;10.90;;;5.50;99.90;;;;;;5012969;28;20220;-84
2021/01/23 05:43:13;;;;;;;3.07;2.03;;;5.50;99.90;;;;;;5013284;28;20603;-82
2021/01/23 05:45:48;;;;;;;1.27;0.70;;;5.40;99.90;;;;;;5012659;28;20219;-83
2021/01/23 05:48:15;;;;;;;1.43;0.50;;;5.30;99.90;;;;;;5013624;28;20212;-84
2021/01/23 05:50:43;;;;;;;1.83;0.80;;;5.30;99.90;;;;;;5012695;28;20219;-74
2021/01/23 05:53:09;;;;;;;1.70;1.07;;;5.40;99.90;;;;;;5013510;28;20215;-84
2021/01/23 05:55:36;;;;;;;2.67;0.70;;;5.50;99.90;;;;;;5012771;28;20224;-82
2021/01/23 05:58:03;;;;;;;2.83;0.70;;;5.60;99.90;;;;;;5013003;28;20239;-82
2021/01/23 06:00:30;;;;;;;7.97;0.70;;;5.70;99.90;;;;;;5012597;28;20204;-82
2021/01/23 06:02:58;;;;;;;1.60;0.60;;;5.70;99.90;;;;;;5013443;28;20247;-74
2021/01/23 06:05:24;;;;;;;0.83;0.53;;;5.70;99.90;;;;;;5013278;28;20246;-82
2021/01/23 06:07:54;;;;;;;3.43;0.50;;;5.80;99.90;;;;;;5012079;28;20236;-84
2021/01/23 06:10:41;;;;;;;2.97;0.40;;;5.70;99.90;;;;;;5012855;28;20208;-82
2021/01/23 06:13:34;;;;;;;0.57;0.33;;;5.70;99.90;;;;;;5013177;28;20283;-82
2021/01/23 06:16:01;;;;;;;1.03;0.43;;;5.60;99.90;;;;;;5012762;28;20208;-82
2021/01/23 06:18:31;;;;;;;0.97;0.30;;;5.50;99.90;;;;;;5012408;28;20232;-82
2021/01/23 06:21:00;;;;;;;1.03;0.70;;;5.50;99.90;;;;;;5012436;28;20685;-82
2021/01/23 06:23:47;;;;;;;2.03;0.60;;;5.50;99.90;;;;;;5013124;28;20239;-71
2021/01/23 06:26:14;;;;;;;0.90;0.50;;;5.50;99.90;;;;;;5012368;28;20729;-81
2021/01/23 06:28:54;;;;;;;1.80;0.87;;;5.50;99.90;;;;;;5005631;28;20242;-82
2021/01/23 06:31:28;;;;;;;4.40;0.50;;;5.60;99.90;;;;;;5012119;28;20218;-79
2021/01/23 06:33:54;;;;;;;1.77;0.40;;;5.50;99.90;;;;;;5012640;28;20247;-84
2021/01/23 06:36:22;;;;;;;1.07;0.40;;;5.40;99.90;;;;;;5011377;28;20235;-82
2021/01/23 06:39:07;;;;;;;0.63;0.33;;;5.30;99.90;;;;;;5011926;28;20235;-84
2021/01/23 06:41:34;;;;;;;2.00;0.50;;;5.30;99.90;;;;;;5012268;28;20374;-87
2021/01/23 06:44:17;;;;;;;1.03;0.40;;;5.40;99.90;;;;;;5012200;28;20246;-86
2021/01/23 06:46:55;;;;;;;1.30;0.80;;;5.40;99.90;;;;;;5012131;28;20216;-88
2021/01/23 06:49:22;;;;;;;1.80;1.00;;;5.50;99.90;;;;;;5012927;28;20204;-83
2021/01/23 06:51:48;;;;;;;3.57;1.60;;;5.60;99.90;;;;;;5012135;28;20609;-83
2021/01/23 06:54:17;;;;;;;2.00;0.80;;;5.70;99.90;;;;;;5012330;28;20204;-84
2021/01/23 06:56:44;;;;;;;1.90;0.60;;;5.60;99.90;;;;;;5005839;28;20220;-85
2021/01/23 06:59:24;;;;;;;1.07;0.67;;;5.60;99.90;;;;;;5011765;28;20267;-83
2021/01/23 07:02:01;;;;;;;0.63;0.63;;;5.60;99.90;;;;;;5011862;28;20215;-83
2021/01/23 07:04:29;;;;;;;1.03;0.70;;;5.60;99.90;;;;;;5011952;28;20633;-83
2021/01/23 07:06:56;;;;;;;3.53;1.57;;;5.60;99.90;;;;;;5009300;28;20212;-82
2021/01/23 07:09:48;;;;;;;1.13;0.40;;;5.60;99.90;;;;;;5010410;28;20244;-81
2021/01/23 07:12:34;;;;;;;1.23;0.57;;;5.60;99.90;;;;;;5011910;28;20239;-83
2021/01/23 07:15:01;;;;;;;1.03;0.57;;;5.60;99.90;;;;;;5007586;28;20212;-84
2021/01/23 07:17:28;;;;;;;0.90;0.70;;;5.70;99.90;;;;;;5011701;28;20214;-83
2021/01/23 07:19:55;;;;;;;1.80;0.83;;;5.80;99.90;;;;;;5012187;28;20239;-83
2021/01/23 07:22:21;;;;;;;1.37;0.90;;;5.80;99.90;;;;;;5011683;28;20672;-84
2021/01/23 07:24:50;;;;;;;1.50;0.77;;;5.90;99.90;;;;;;5011173;28;20703;-83
2021/01/23 07:27:16;;;;;;;1.57;0.73;;;5.90;99.90;;;;;;5011733;28;20599;-84
2021/01/23 07:29:49;;;;;;;2.23;0.60;;;6.00;99.90;;;;;;5011692;28;20212;-86
2021/01/23 07:32:15;;;;;;;2.23;0.90;;;6.00;99.90;;;;;;5012545;28;20208;-87
2021/01/23 07:34:53;;;;;;;1.10;0.93;;;6.10;99.90;;;;;;5005607;28;20209;-88
2021/01/23 07:37:38;;;;;;;1.03;0.60;;;6.10;99.90;;;;;;5010545;28;20587;-86
2021/01/23 07:40:07;;;;;;;0.70;0.33;;;6.00;99.90;;;;;;5010524;28;20227;-77
2021/01/23 07:42:34;;;;;;;1.53;0.50;;;6.00;99.90;;;;;;5013094;28;20208;-88
2021/01/23 07:45:01;;;;;;;1.57;0.73;;;6.10;99.90;;;;;;5012160;28;20212;-88
2021/01/23 07:47:27;;;;;;;1.80;1.00;;;6.10;99.90;;;;;;5011498;28;20555;-87
2021/01/23 07:50:07;;;;;;;1.43;0.63;;;6.10;99.90;;;;;;5011170;28;20249;-82
2021/01/23 07:52:34;;;;;;;1.80;0.80;;;6.10;99.90;;;;;;5010440;28;20208;-81
2021/01/23 07:55:01;;;;;;;2.80;1.23;;;6.10;99.90;;;;;;5008972;28;20200;-81
2021/01/23 07:57:28;;;;;;;0.90;0.60;;;6.20;99.90;;;;;;5004266;28;20254;-77
2021/01/23 07:59:55;;;;;;;2.03;0.80;;;6.20;99.90;;;;;;5011657;28;20258;-87
2021/01/23 08:02:22;;;;;;;1.80;0.97;;;6.20;99.90;;;;;;5015766;28;20295;-83
2021/01/23 08:04:50;;;;;;;2.53;0.73;;;6.30;99.90;;;;;;5010922;28;20737;-83
2021/01/23 08:07:18;;;;;;;2.63;1.80;;;6.30;99.90;;;;;;5011339;28;20955;-84
2021/01/23 08:09:45;;;;;;;1.53;0.93;;;6.30;99.90;;;;;;5006794;28;20205;-84
2021/01/23 08:12:18;;;;;;;2.07;1.07;;;6.40;99.90;;;;;;5011257;28;20675;-84
2021/01/23 08:14:52;;;;;;;1.40;0.80;;;6.40;99.90;;;;;;5010811;28;20596;-86
2021/01/23 08:17:19;;;;;;;6.90;1.50;;;6.50;99.90;;;;;;5013105;28;20200;-86
2021/01/23 08:19:50;;;;;;;2.70;1.07;;;6.50;99.90;;;;;;5018128;28;20239;-85
2021/01/23 08:22:16;;;;;;;2.33;1.53;;;6.50;99.90;;;;;;5011448;28;20212;-84
2021/01/23 08:24:43;;;;;;;1.63;1.10;;;6.60;99.90;;;;;;5010656;28;20208;-85
2021/01/23 08:27:20;;;;;;;3.53;1.40;;;6.70;99.90;;;;;;5011159;28;20270;-85
2021/01/23 08:29:46;;;;;;;1.20;0.90;;;6.80;99.90;;;;;;5010444;28;20220;-83
2021/01/23 08:32:14;;;;;;;2.33;1.17;;;6.90;99.90;;;;;;5010882;28;20211;-81
2021/01/23 08:34:41;;;;;;;2.80;1.47;;;7.00;99.90;;;;;;5013127;28;20239;-78
2021/01/23 08:37:08;;;;;;;2.20;1.30;;;7.00;99.90;;;;;;5012765;28;20680;-81
2021/01/23 08:39:42;;;;;;;1.40;1.00;;;7.10;99.90;;;;;;5010867;28;20267;-83
2021/01/23 08:42:08;;;;;;;2.23;1.07;;;7.20;99.90;;;;;;5011075;28;20254;-80
2021/01/23 08:44:35;;;;;;;3.43;1.20;;;7.30;99.90;;;;;;5010599;28;20240;-82
2021/01/23 08:47:03;;;;;;;1.67;1.13;;;7.40;99.90;;;;;;5010797;28;20236;-81
2021/01/23 08:49:31;;;;;;;1.60;1.17;;;7.40;99.90;;;;;;5010949;28;20205;-83
2021/01/23 08:51:57;;;;;;;1.53;1.10;;;7.40;99.90;;;;;;5013336;28;20240;-78
2021/01/23 08:54:24;;;;;;;2.07;1.87;;;7.50;99.90;;;;;;5014757;28;20208;-83
2021/01/23 08:56:51;;;;;;;2.77;1.80;;;7.50;99.90;;;;;;5014163;28;20247;-81
2021/01/23 08:59:17;;;;;;;3.50;1.90;;;7.50;99.90;;;;;;5013904;28;20236;-83
2021/01/23 09:01:44;;;;;;;2.60;1.53;;;7.60;99.90;;;;;;5014313;28;20212;-82
2021/01/23 09:04:10;;;;;;;3.33;1.80;;;7.70;99.90;;;;;;5013991;28;20212;-83
2021/01/23 09:06:37;;;;;;;2.97;1.87;;;7.90;99.90;;;;;;5014745;28;20212;-81
2021/01/23 09:09:05;;;;;;;1.50;0.93;;;7.90;99.90;;;;;;5011440;28;20204;-81
2021/01/23 09:11:32;;;;;;;1.57;1.43;;;8.00;99.90;;;;;;5012364;28;20675;-81
2021/01/23 09:13:58;;;;;;;1.60;1.50;;;8.10;99.90;;;;;;5020588;28;20212;-81
2021/01/23 09:16:25;;;;;;;2.80;1.67;;;8.20;99.90;;;;;;5007043;28;20204;-83
2021/01/23 09:18:51;;;;;;;2.43;1.87;;;8.30;99.90;;;;;;5019395;28;20228;-83
2021/01/23 09:21:18;;;;;;;3.20;2.10;;;8.30;99.90;;;;;;5012845;28;20204;-82
2021/01/23 09:23:45;;;;;;;7.47;3.40;;;8.40;99.90;;;;;;5016037;28;20208;-82
2021/01/23 09:26:12;;;;;;;2.90;1.90;;;8.50;99.90;;;;;;5020705;28;20671;-81
2021/01/23 09:28:38;;;;;;;3.53;2.07;;;8.70;99.90;;;;;;5020486;28;20546;-82
2021/01/23 09:31:04;;;;;;;3.17;1.87;;;9.00;99.90;;;;;;5013330;28;20217;-82
2021/01/23 09:33:31;;;;;;;2.50;2.00;;;8.90;99.90;;;;;;5012899;28;20207;-80
2021/01/23 09:35:58;;;;;;;1.60;1.33;;;9.10;99.90;;;;;;5013496;28;20217;-76
2021/01/23 09:38:24;;;;;;;1.67;1.10;;;9.20;99.90;;;;;;5014719;28;20253;-76
2021/01/23 09:40:52;;;;;;;2.77;1.80;;;9.30;99.90;;;;;;5018278;28;20208;-78
2021/01/23 09:43:18;;;;;;;3.13;1.43;;;9.50;99.90;;;;;;5015896;28;20208;-75
2021/01/23 09:45:45;;;;;;;3.90;1.27;;;9.60;99.90;;;;;;5014865;28;20208;-70
2021/01/23 09:48:11;;;;;;;2.43;1.50;;;9.70;99.90;;;;;;5021567;28;20212;-77
2021/01/23 09:50:37;;;;;;;2.83;1.30;;;10.00;99.90;;;;;;5011951;28;20223;-76
2021/01/23 09:53:04;;;;;;;2.53;1.47;;;10.50;99.90;;;;;;5007627;28;20673;-76
2021/01/23 09:55:31;;;;;;;2.20;1.63;;;12.00;99.90;;;;;;5008455;28;20215;-74
2021/01/23 09:57:58;;;;;;;2.83;1.97;;;12.40;99.90;;;;;;5012294;28;20204;-74
2021/01/23 10:00:25;;;;;;;3.70;1.23;;;12.20;99.90;;;;;;5012953;28;20274;-75
2021/01/23 10:02:51;;;;;;;1.50;1.17;;;12.90;99.90;;;;;;5011097;28;20215;-82
2021/01/23 10:05:18;;;;;;;2.00;1.50;;;13.40;99.90;;;;;;5012501;28;20224;-81
2021/01/23 10:07:44;;;;;;;2.53;1.73;;;13.30;99.90;;;;;;5012355;28;20208;-83
2021/01/23 10:10:11;;;;;;;2.33;1.50;;;12.80;99.90;;;;;;5011592;28;20247;-79
2021/01/23 10:12:38;;;;;;;2.27;1.20;;;12.40;99.90;;;;;;5012895;28;20211;-82
2021/01/23 10:15:07;;;;;;;1.83;1.30;;;12.30;99.90;;;;;;5012724;28;20234;-82
2021/01/23 10:17:33;;;;;;;4.80;1.80;;;13.30;99.90;;;;;;5011302;28;20212;-80
2021/01/23 10:19:59;;;;;;;1.77;1.57;;;13.10;99.90;;;;;;5012211;28;20244;-82
2021/01/23 10:22:26;;;;;;;4.47;1.20;;;13.60;99.90;;;;;;5012092;28;20248;-82
2021/01/23 10:24:53;;;;;;;2.63;1.50;;;12.90;99.90;;;;;;5011974;28;20213;-83
2021/01/23 10:27:19;;;;;;;1.80;0.80;;;12.10;99.90;;;;;;5010974;28;20232;-81
2021/01/23 10:29:45;;;;;;;2.83;1.93;;;11.60;99.90;;;;;;5014576;28;20209;-81
2021/01/23 10:32:13;;;;;;;2.40;1.23;;;11.40;99.90;;;;;;5019874;28;20207;-81
2021/01/23 10:34:39;;;;;;;2.93;2.10;;;11.20;99.90;;;;;;5011980;28;20231;-82
2021/01/23 10:37:06;;;;;;;2.90;1.13;;;11.30;99.90;;;;;;5008503;28;20577;-81
2021/01/23 10:39:32;;;;;;;2.33;1.37;;;11.20;99.90;;;;;;5013026;28;20715;-83
2021/01/23 10:41:59;;;;;;;3.43;2.03;;;11.10;99.90;;;;;;5012321;28;20250;-82
2021/01/23 10:44:26;;;;;;;2.47;2.03;;;11.20;99.90;;;;;;5012397;28;20251;-82
2021/01/23 10:46:52;;;;;;;3.57;1.70;;;11.50;99.90;;;;;;5013643;28;20212;-82
2021/01/23 10:49:19;;;;;;;3.67;1.70;;;11.60;99.90;;;;;;5009670;28;20255;-79
2021/01/23 10:51:46;;;;;;;2.43;1.63;;;11.50;99.90;;;;;;5009302;28;20241;-82
2021/01/23 10:54:12;;;;;;;1.53;1.30;;;11.60;99.90;;;;;;5011174;28;20204;-81
2021/01/23 10:56:39;;;;;;;5.87;1.30;;;11.50;99.90;;;;;;5011111;28;20274;-81
2021/01/23 10:59:05;;;;;;;1.83;1.17;;;11.40;99.90;;;;;;5014178;28;20324;-80
2021/01/23 11:01:32;;;;;;;1.83;1.23;;;11.30;99.90;;;;;;5017383;28;20203;-80
2021/01/23 11:03:58;;;;;;;2.57;1.27;;;11.30;99.90;;;;;;5016855;28;20208;-82
2021/01/23 11:06:26;;;;;;;1.77;1.00;;;11.30;99.90;;;;;;5011641;28;20204;-81
2021/01/23 11:08:52;;;;;;;3.20;1.27;;;11.40;99.90;;;;;;5011625;28;20209;-83
2021/01/23 11:11:19;;;;;;;2.83;1.17;;;11.50;99.90;;;;;;5007434;28;20237;-78
2021/01/23 11:13:45;;;;;;;2.40;1.33;;;11.80;99.90;;;;;;5009883;28;20218;-84
2021/01/23 11:16:11;;;;;;;2.33;0.90;;;11.80;99.90;;;;;;5011236;28;20254;-79
2021/01/23 11:18:38;;;;;;;2.50;0.70;;;12.00;99.90;;;;;;5010982;28;20707;-85
2021/01/23 11:21:05;;;;;;;2.33;0.80;;;11.90;99.90;;;;;;5010463;28;20675;-84
2021/01/23 11:23:32;;;;;;;2.57;1.07;;;11.90;99.90;;;;;;5010861;28;20203;-84
2021/01/23 11:25:59;;;;;;;3.17;1.00;;;12.00;99.90;;;;;;5011792;28;20212;-85
2021/01/23 11:28:25;;;;;;;2.30;0.90;;;12.20;99.90;;;;;;5004493;28;20250;-82
2021/01/23 11:30:53;;;;;;;2.30;0.90;;;12.10;99.90;;;;;;5011454;28;20212;-82
2021/01/23 11:33:21;;;;;;;1.57;0.70;;;12.10;99.90;;;;;;5011078;28;20208;-84
2021/01/23 11:35:48;;;;;;;2.93;1.10;;;12.00;99.90;;;;;;5011197;28;20692;-85
2021/01/23 11:38:14;;;;;;;3.37;1.60;;;12.20;99.90;;;;;;5011484;28;20247;-85
2021/01/23 11:40:42;;;;;;;1.67;1.07;;;12.30;99.90;;;;;;5010682;28;20739;-84
2021/01/23 11:43:09;;;;;;;1.33;0.80;;;12.40;99.90;;;;;;5011558;28;20212;-84
2021/01/23 11:45:35;;;;;;;1.87;1.37;;;12.30;99.90;;;;;;5010938;28;20199;-83
2021/01/23 11:48:02;;;;;;;2.63;1.00;;;12.20;99.90;;;;;;5010428;28;20212;-85
2021/01/23 11:50:28;;;;;;;1.33;0.63;;;12.10;99.90;;;;;;5011532;28;20208;-82
2021/01/23 11:52:55;;;;;;;2.70;0.73;;;12.20;99.90;;;;;;5014055;28;20560;-81
2021/01/23 11:55:21;;;;;;;3.03;0.97;;;12.20;99.90;;;;;;5008155;28;20215;-84
2021/01/23 11:57:48;;;;;;;2.60;1.27;;;12.20;99.90;;;;;;5010637;28;20212;-84
2021/01/23 12:00:16;;;;;;;2.57;1.03;;;12.10;99.90;;;;;;5012679;28;20286;-84
2021/01/23 12:02:42;;;;;;;0.90;0.63;;;11.80;99.90;;;;;;5010493;28;20215;-84
2021/01/23 12:05:10;;;;;;;1.80;0.73;;;11.60;99.90;;;;;;5011751;28;20212;-84
2021/01/23 12:07:36;;;;;;;1.17;1.07;;;11.60;99.90;;;;;;5010350;28;20212;-84
2021/01/23 12:10:04;;;;;;;5.30;1.07;;;11.50;99.90;;;;;;5011050;28;20208;-82
2021/01/23 12:12:30;;;;;;;2.00;0.80;;;11.50;99.90;;;;;;5010622;28;20204;-84
2021/01/23 12:14:57;;;;;;;3.60;0.70;;;11.40;99.90;;;;;;5010652;28;20582;-77
2021/01/23 12:17:24;;;;;;;1.97;0.80;;;11.50;99.90;;;;;;5011221;28;20599;-80
2021/01/23 12:19:50;;;;;;;1.53;0.80;;;11.40;99.90;;;;;;5010070;28;20243;-83
2021/01/23 12:22:17;;;;;;;1.17;0.90;;;11.50;99.90;;;;;;5011075;28;20223;-84
2021/01/23 12:24:45;;;;;;;2.10;0.80;;;11.60;99.90;;;;;;5010472;28;20235;-85
2021/01/23 12:27:12;;;;;;;2.67;1.40;;;11.60;99.90;;;;;;5013883;28;20219;-84
2021/01/23 12:29:38;;;;;;;1.83;0.90;;;11.70;99.90;;;;;;5014342;28;20215;-84
2021/01/23 12:32:08;;;;;;;1.87;1.17;;;11.70;99.90;;;;;;5014749;28;20339;-83
2021/01/23 12:34:34;;;;;;;2.97;1.07;;;11.80;99.90;;;;;;5014684;28;20204;-85
2021/01/23 12:37:01;;;;;;;1.53;1.00;;;11.80;99.90;;;;;;5014262;28;20601;-82
2021/01/23 12:39:27;;;;;;;1.67;1.10;;;11.80;99.90;;;;;;5014158;28;20715;-81
2021/01/23 12:41:54;;;;;;;1.10;0.90;;;11.80;99.90;;;;;;5014654;28;20691;-83
2021/01/23 12:44:20;;;;;;;2.23;1.10;;;11.90;99.90;;;;;;5014477;28;20243;-83
2021/01/23 12:46:47;;;;;;;2.63;1.00;;;11.70;99.90;;;;;;5014210;28;20676;-83
2021/01/23 12:49:14;;;;;;;5.27;1.33;;;11.70;99.90;;;;;;5014171;28;20672;-80
2021/01/23 12:51:41;;;;;;;1.20;0.90;;;11.50;99.90;;;;;;5014093;28;20297;-83
2021/01/23 12:54:07;;;;;;;1.33;0.63;;;11.50;99.90;;;;;;5014153;28;20212;-83
2021/01/23 12:56:33;;;;;;;0.83;0.53;;;11.30;99.90;;;;;;5013733;28;20571;-81
2021/01/23 12:59:00;;;;;;;2.40;0.90;;;11.40;99.90;;;;;;5015137;28;20746;-83
2021/01/23 13:01:26;;;;;;;3.57;0.70;;;11.00;99.90;;;;;;5026409;28;20296;-80